createdAt,value
2019-04-11T00:00:19.680Z,17.12
2019-04-11T00:02:49.055Z,18.85
2019-04-11T00:05:18.852Z,17.60
2019-04-11T00:07:48.786Z,16.90
2019-04-11T00:10:17.878Z,18.50
2019-04-11T00:12:46.578Z,19.15
2019-04-11T00:15:16.064Z,18.52
2019-04-11T00:17:45.961Z,15.43
2019-04-11T00:20:15.892Z,16.25
2019-04-11T00:22:45.775Z,16.60
2019-04-11T00:25:15.595Z,17.25
2019-04-11T00:27:45.434Z,19.70
2019-04-11T00:30:15.926Z,18.30
2019-04-11T00:32:45.529Z,16.27
2019-04-11T00:35:14.118Z,19.10
2019-04-11T00:37:43.438Z,18.77
2019-04-11T00:40:13.130Z,15.23
2019-04-11T00:42:42.912Z,16.27
2019-04-11T00:45:11.663Z,13.70
2019-04-11T00:47:41.457Z,13.25
2019-04-11T00:50:10.690Z,15.18
2019-04-11T00:52:39.314Z,18.20
2019-04-11T00:55:08.149Z,15.40
2019-04-11T00:57:37.121Z,16.15
2019-04-11T01:00:06.999Z,14.58
2019-04-11T01:02:35.881Z,14.55
2019-04-11T01:05:05.877Z,10.80
2019-04-11T01:07:35.331Z,14.77
2019-04-11T01:10:06.666Z,14.00
2019-04-11T01:12:36.469Z,14.85
2019-04-11T01:15:07.762Z,13.58
2019-04-11T01:17:37.101Z,16.40
2019-04-11T01:20:06.984Z,13.58
2019-04-11T01:22:35.774Z,12.70
2019-04-11T01:25:06.318Z,14.38
2019-04-11T01:27:36.176Z,16.73
2019-04-11T01:30:06.449Z,14.60
2019-04-11T01:32:35.150Z,14.10
2019-04-11T01:35:04.797Z,13.40
2019-04-11T01:37:33.513Z,12.37
2019-04-11T01:40:02.638Z,13.72
2019-04-11T01:42:31.714Z,13.20
2019-04-11T01:45:01.069Z,12.70
2019-04-11T01:47:35.819Z,15.10
2019-04-11T01:50:05.512Z,13.90
2019-04-11T01:52:34.264Z,14.75
2019-04-11T01:55:03.944Z,11.00
2019-04-11T01:57:32.665Z,13.68
2019-04-11T02:00:01.982Z,13.00
2019-04-11T02:02:38.918Z,12.10
2019-04-11T02:05:16.617Z,13.22
2019-04-11T02:07:45.374Z,13.95
2019-04-11T02:10:14.777Z,12.60
2019-04-11T02:12:43.614Z,13.18
2019-04-11T02:15:12.386Z,14.53
2019-04-11T02:17:41.161Z,13.48
2019-04-11T02:20:09.881Z,13.58
2019-04-11T02:22:40.455Z,12.03
2019-04-11T02:25:14.474Z,13.48
2019-04-11T02:27:44.260Z,17.02
2019-04-11T02:30:14.217Z,16.50
2019-04-11T02:32:45.493Z,15.20
2019-04-11T02:35:15.385Z,13.35
2019-04-11T02:37:47.618Z,11.10
2019-04-11T02:40:15.615Z,12.05
2019-04-11T02:42:45.667Z,10.45
2019-04-11T02:45:27.365Z,11.35
2019-04-11T02:47:48.275Z,9.30
2019-04-11T02:50:18.662Z,8.80
2019-04-11T02:52:47.212Z,11.85
2019-04-11T02:55:17.117Z,10.85
2019-04-11T02:57:46.131Z,12.47
2019-04-11T03:00:15.858Z,10.80
2019-04-11T03:02:44.788Z,10.40
2019-04-11T03:05:13.823Z,12.70
2019-04-11T03:07:42.648Z,12.03
2019-04-11T03:10:12.291Z,10.10
2019-04-11T03:12:43.654Z,10.93
2019-04-11T03:15:27.163Z,10.85
2019-04-11T03:17:45.608Z,9.60
2019-04-11T03:20:22.046Z,11.18
2019-04-11T03:22:44.748Z,10.70
2019-04-11T03:25:13.712Z,12.77
2019-04-11T03:27:43.315Z,11.90
2019-04-11T03:30:17.261Z,10.35
2019-04-11T03:33:50.172Z,11.03
2019-04-11T03:36:18.972Z,12.78
2019-04-11T03:38:05.840Z,10.48
2019-04-11T03:40:30.478Z,10.78
2019-04-11T03:42:59.445Z,12.03
2019-04-11T03:45:38.146Z,12.00
2019-04-11T03:48:04.321Z,12.70
2019-04-11T03:50:19.634Z,14.45
2019-04-11T03:52:46.240Z,16.30
2019-04-11T03:55:15.633Z,15.68
2019-04-11T03:57:44.519Z,12.95
2019-04-11T04:00:15.417Z,13.40
2019-04-11T04:02:44.466Z,12.73
2019-04-11T04:05:13.323Z,16.02
2019-04-11T04:07:42.207Z,16.20
2019-04-11T04:10:13.279Z,14.90
2019-04-11T04:12:43.101Z,14.98
2019-04-11T04:15:50.835Z,13.40
2019-04-11T04:18:04.377Z,15.05
2019-04-11T04:20:36.951Z,14.75
2019-04-11T04:23:11.884Z,14.63
2019-04-11T04:25:42.736Z,15.72
2019-04-11T04:28:11.881Z,12.47
2019-04-11T04:30:43.251Z,14.90
2019-04-11T04:33:13.105Z,13.80
2019-04-11T04:35:42.809Z,13.03
2019-04-11T04:38:13.621Z,13.28
2019-04-11T04:40:58.529Z,13.78
2019-04-11T04:43:14.645Z,12.55
2019-04-11T04:46:03.415Z,13.43
2019-04-11T04:48:17.904Z,13.20
2019-04-11T04:50:44.885Z,12.03
2019-04-11T04:53:15.853Z,13.08
2019-04-11T04:55:45.705Z,12.93
2019-04-11T04:58:15.761Z,14.80
2019-04-11T05:00:45.641Z,13.58
2019-04-11T05:03:15.918Z,13.15
2019-04-11T05:05:46.435Z,20.10
2019-04-11T05:08:16.562Z,23.35
2019-04-11T05:10:46.980Z,21.55
2019-04-11T05:13:17.225Z,17.52
2019-04-11T05:15:46.119Z,20.88
2019-04-11T05:18:17.328Z,19.12
2019-04-11T05:20:46.245Z,15.18
2019-04-11T05:23:15.083Z,17.32
2019-04-11T05:25:44.618Z,24.02
2019-04-11T05:28:14.012Z,25.40
2019-04-11T05:30:42.724Z,24.63
2019-04-11T05:33:11.607Z,19.85
2019-04-11T05:35:41.630Z,23.27
2019-04-11T05:38:10.475Z,22.48
2019-04-11T05:40:39.822Z,26.20
2019-04-11T05:43:08.667Z,19.75
2019-04-11T05:45:38.096Z,22.40
2019-04-11T05:48:09.388Z,17.80
2019-04-11T05:50:43.298Z,16.97
2019-04-11T05:53:09.493Z,20.17
2019-04-11T05:55:41.533Z,16.73
2019-04-11T05:58:11.438Z,20.62
2019-04-11T06:00:41.030Z,17.82
2019-04-11T06:03:10.403Z,17.82
2019-04-11T06:05:40.880Z,17.07
2019-04-11T06:08:12.436Z,19.55
2019-04-11T06:10:46.651Z,17.60
2019-04-11T06:13:17.089Z,18.10
2019-04-11T06:15:51.279Z,17.55
2019-04-11T06:18:34.006Z,19.07
2019-04-11T06:21:05.992Z,20.62
2019-04-11T06:23:45.705Z,23.10
2019-04-11T06:26:16.722Z,24.30
2019-04-11T06:28:45.379Z,25.70
2019-04-11T06:31:18.649Z,24.43
2019-04-11T06:33:49.085Z,21.90
2019-04-11T06:36:19.453Z,19.02
2019-04-11T06:38:51.064Z,19.55
2019-04-11T06:41:38.854Z,27.73
2019-04-11T06:44:25.826Z,33.38
2019-04-11T06:47:05.368Z,34.80
2019-04-11T06:49:48.644Z,31.87
2019-04-11T06:52:17.540Z,32.20
2019-04-11T06:55:04.614Z,35.90
2019-04-11T06:57:34.361Z,37.33
2019-04-11T07:00:05.189Z,33.38
2019-04-11T07:02:36.849Z,32.38
2019-04-11T07:05:10.744Z,39.48
2019-04-11T07:07:42.986Z,35.33
2019-04-11T07:10:12.341Z,37.98
2019-04-11T07:12:49.387Z,37.35
2019-04-11T07:15:25.756Z,32.13
2019-04-11T07:18:12.513Z,25.70
2019-04-11T07:20:52.312Z,30.32
2019-04-11T07:23:40.434Z,30.32
2019-04-11T07:26:11.976Z,32.38
2019-04-11T07:28:43.704Z,34.03
2019-04-11T07:31:21.654Z,34.70
2019-04-11T07:33:56.195Z,36.33
2019-04-11T07:36:44.032Z,28.32
2019-04-11T07:39:14.688Z,39.80
2019-04-11T07:41:45.701Z,38.92
2019-04-11T07:44:30.133Z,35.80
2019-04-11T07:47:19.139Z,36.03
2019-04-11T07:49:47.448Z,30.43
2019-04-11T07:52:17.586Z,25.48
2019-04-11T07:54:46.353Z,23.75
2019-04-11T07:57:31.528Z,22.30
2019-04-11T08:00:01.880Z,21.20
2019-04-11T08:02:48.441Z,25.65
2019-04-11T08:05:19.257Z,23.25
2019-04-11T08:07:49.745Z,23.22
2019-04-11T08:10:35.217Z,26.23
2019-04-11T08:13:05.902Z,23.07
2019-04-11T08:15:53.651Z,23.77
2019-04-11T08:18:30.160Z,26.20
2019-04-11T08:21:17.750Z,39.42
2019-04-11T08:23:48.288Z,39.20
2019-04-11T08:26:24.819Z,35.20
2019-04-11T08:29:05.333Z,32.33
2019-04-11T08:31:29.202Z,39.45
2019-04-11T08:33:59.280Z,34.25
2019-04-11T08:36:29.745Z,38.60
2019-04-11T08:38:58.612Z,35.83
2019-04-11T08:41:47.581Z,38.60
2019-04-11T08:44:17.422Z,37.55
2019-04-11T08:46:47.883Z,27.30
2019-04-11T08:49:21.571Z,37.10
2019-04-11T08:51:51.686Z,36.38
2019-04-11T08:54:25.762Z,36.58
2019-04-11T08:56:55.672Z,32.42
2019-04-11T08:59:42.509Z,35.25
2019-04-11T09:02:12.784Z,36.30
2019-04-11T09:05:07.301Z,36.90
2019-04-11T09:07:33.785Z,40.45
2019-04-11T09:10:21.952Z,36.38
2019-04-11T09:12:53.086Z,37.83
2019-04-11T09:15:35.332Z,34.88
2019-04-11T09:18:07.975Z,34.30
2019-04-11T09:20:53.903Z,31.12
2019-04-11T09:23:23.770Z,34.40
2019-04-11T09:26:03.619Z,32.33
2019-04-11T09:28:34.071Z,33.35
2019-04-11T09:31:07.545Z,38.45
2019-04-11T09:33:39.704Z,41.33
2019-04-11T09:36:28.980Z,35.63
2019-04-11T09:39:02.551Z,45.45
2019-04-11T09:41:48.986Z,32.65
2019-04-11T09:44:22.483Z,33.20
2019-04-11T09:47:05.441Z,36.73
2019-04-11T09:49:39.571Z,40.23
2019-04-11T09:52:25.061Z,38.90
2019-04-11T09:54:56.721Z,32.65
2019-04-11T09:57:27.176Z,34.18
2019-04-11T10:00:00.270Z,33.60
2019-04-11T10:02:46.183Z,35.92
2019-04-11T10:05:18.007Z,34.50
2019-04-11T10:08:03.383Z,33.42
2019-04-11T10:10:34.941Z,34.53
2019-04-11T10:13:06.716Z,37.30
2019-04-11T10:15:43.184Z,35.58
2019-04-11T10:18:30.028Z,38.95
2019-04-11T10:20:54.994Z,33.65
2019-04-11T10:23:32.572Z,32.20
2019-04-11T10:26:01.837Z,46.83
2019-04-11T10:28:49.594Z,40.30
2019-04-11T10:31:18.463Z,36.08
2019-04-11T10:33:55.435Z,37.40
2019-04-11T10:36:27.240Z,31.10
2019-04-11T10:38:57.761Z,33.35
2019-04-11T10:41:28.542Z,33.25
2019-04-11T10:43:57.361Z,31.57
2019-04-11T10:46:33.896Z,29.25
2019-04-11T10:49:07.480Z,32.90
2019-04-11T10:51:43.804Z,38.53
2019-04-11T10:54:14.096Z,34.13
2019-04-11T10:56:44.447Z,31.62
2019-04-11T10:59:13.928Z,31.70
2019-04-11T11:02:00.587Z,31.30
2019-04-11T11:04:34.734Z,29.18
2019-04-11T11:07:06.470Z,35.30
2019-04-11T11:09:50.370Z,29.67
2019-04-11T11:12:27.385Z,30.27
2019-04-11T11:15:15.946Z,30.52
2019-04-11T11:18:20.598Z,34.55
2019-04-11T11:20:27.508Z,27.40
2019-04-11T11:22:53.738Z,26.70
2019-04-11T11:25:42.231Z,30.23
2019-04-11T11:28:13.702Z,44.38
2019-04-11T11:31:03.190Z,36.28
2019-04-11T11:33:34.149Z,29.05
2019-04-11T11:36:21.415Z,32.15
2019-04-11T11:39:10.858Z,30.88
2019-04-11T11:41:59.991Z,27.65
2019-04-11T11:44:43.169Z,30.97
2019-04-11T11:47:33.100Z,27.95
2019-04-11T11:50:04.399Z,24.57
2019-04-11T11:52:51.098Z,33.70
2019-04-11T11:55:21.928Z,28.23
2019-04-11T11:57:53.079Z,24.60
2019-04-11T12:00:23.679Z,23.77
2019-04-11T12:03:01.890Z,23.30
2019-04-11T12:05:32.697Z,26.05
2019-04-11T12:08:08.742Z,23.00
2019-04-11T12:10:43.838Z,27.27
2019-04-11T12:13:28.899Z,21.82
2019-04-11T12:16:05.805Z,20.25
2019-04-11T12:18:43.938Z,22.30
2019-04-11T12:21:21.835Z,20.85
2019-04-11T12:23:58.303Z,21.25
2019-04-11T12:26:20.360Z,20.95
2019-04-11T12:28:54.189Z,20.85
2019-04-11T12:31:32.097Z,19.20
2019-04-11T12:34:08.847Z,19.50
2019-04-11T12:36:44.617Z,19.80
2019-04-11T12:39:30.994Z,20.37
2019-04-11T12:42:01.343Z,19.07
2019-04-11T12:44:31.758Z,20.45
2019-04-11T12:47:18.784Z,22.85
2019-04-11T12:49:53.037Z,19.70
2019-04-11T12:52:39.207Z,16.90
2019-04-11T12:55:12.270Z,19.73
2019-04-11T12:58:00.960Z,16.17
2019-04-11T13:00:40.431Z,16.85
2019-04-11T13:03:27.603Z,18.35
2019-04-11T13:06:00.938Z,18.40
2019-04-11T13:08:43.396Z,16.05
2019-04-11T13:11:13.750Z,15.80
2019-04-11T13:13:44.103Z,16.80
2019-04-11T13:16:14.406Z,17.12
2019-04-11T13:18:47.711Z,15.08
2019-04-11T13:21:34.129Z,15.68
2019-04-11T13:24:12.719Z,14.15
2019-04-11T13:26:59.317Z,10.98
2019-04-11T13:29:44.743Z,13.85
2019-04-11T13:32:30.155Z,10.20
2019-04-11T13:35:16.813Z,13.10
2019-04-11T13:38:03.201Z,13.38
2019-04-11T13:40:33.919Z,12.00
2019-04-11T13:43:13.369Z,11.10
2019-04-11T13:45:52.414Z,9.78
2019-04-11T13:48:39.295Z,12.53
2019-04-11T13:51:12.087Z,9.65
2019-04-11T13:53:58.844Z,9.43
2019-04-11T13:56:32.188Z,9.43
2019-04-11T13:59:05.298Z,8.78
2019-04-11T14:01:35.642Z,9.70
2019-04-11T14:04:08.928Z,8.55
2019-04-11T14:06:37.821Z,9.48
2019-04-11T14:09:11.595Z,10.25
2019-04-11T14:11:41.919Z,8.53
2019-04-11T14:14:18.474Z,10.65
2019-04-11T14:16:51.621Z,8.33
2019-04-11T14:19:24.943Z,9.68
2019-04-11T14:21:53.695Z,9.50
2019-04-11T14:24:24.047Z,11.03
2019-04-11T14:26:54.407Z,9.98
2019-04-11T14:29:27.691Z,11.30
2019-04-11T14:32:16.287Z,9.88
2019-04-11T14:34:47.096Z,10.85
2019-04-11T14:37:17.498Z,12.80
2019-04-11T14:39:47.863Z,11.00
2019-04-11T14:42:24.053Z,9.00
2019-04-11T14:44:54.553Z,10.43
2019-04-11T14:47:24.871Z,8.63
2019-04-11T14:49:58.094Z,11.50
2019-04-11T14:52:28.467Z,12.18
2019-04-11T14:54:57.163Z,11.53
2019-04-11T14:57:30.183Z,9.95
2019-04-11T15:00:00.585Z,13.60
2019-04-11T15:02:39.519Z,12.80
2019-04-11T15:05:15.891Z,11.60
2019-04-11T15:07:46.070Z,12.37
2019-04-11T15:10:34.822Z,13.13
2019-04-11T15:13:04.303Z,14.45
2019-04-11T15:15:34.640Z,13.10
2019-04-11T15:18:04.754Z,18.12
2019-04-11T15:20:35.098Z,14.23
2019-04-11T15:23:10.951Z,15.55
2019-04-11T15:25:44.206Z,10.90
2019-04-11T15:28:14.563Z,11.53
2019-04-11T15:30:49.431Z,17.73
2019-04-11T15:33:38.292Z,14.40
2019-04-11T15:36:08.671Z,12.35
2019-04-11T15:38:44.857Z,9.93
2019-04-11T15:41:13.599Z,10.48
2019-04-11T15:43:49.665Z,13.00
2019-04-11T15:46:32.043Z,13.25
2019-04-11T15:49:02.402Z,11.88
2019-04-11T15:51:37.819Z,15.55
2019-04-11T15:54:14.163Z,24.85
2019-04-11T15:56:56.934Z,21.20
2019-04-11T15:59:30.383Z,21.50
2019-04-11T16:02:09.962Z,17.27
2019-04-11T16:04:46.551Z,16.45
2019-04-11T16:07:23.102Z,13.65
2019-04-11T16:09:53.498Z,17.62
2019-04-11T16:12:26.531Z,17.17
2019-04-11T16:15:15.078Z,18.48
2019-04-11T16:18:01.699Z,15.65
2019-04-11T16:20:30.446Z,15.20
2019-04-11T16:23:18.894Z,14.03
2019-04-11T16:25:49.275Z,11.55
2019-04-11T16:28:22.226Z,13.55
2019-04-11T16:30:52.591Z,13.00
2019-04-11T16:33:37.935Z,14.35
2019-04-11T16:36:17.255Z,11.15
2019-04-11T16:38:49.756Z,11.90
2019-04-11T16:41:35.765Z,11.70
2019-04-11T16:44:06.149Z,14.78
2019-04-11T16:46:55.648Z,14.60
2019-04-11T16:49:23.715Z,12.88
2019-04-11T16:51:53.622Z,11.83
2019-04-11T16:54:22.318Z,12.30
2019-04-11T16:56:51.078Z,15.30
2019-04-11T16:59:20.081Z,15.45
2019-04-11T17:01:53.407Z,17.07
2019-04-11T17:04:19.760Z,13.98
2019-04-11T17:07:06.873Z,14.85
2019-04-11T17:09:39.946Z,15.18
2019-04-11T17:12:08.712Z,13.38
2019-04-11T17:14:37.414Z,11.83
2019-04-11T17:17:14.816Z,13.50
2019-04-11T17:19:36.874Z,10.95
2019-04-11T17:22:08.055Z,11.15
2019-04-11T17:24:36.072Z,10.58
2019-04-11T17:27:04.770Z,11.68
2019-04-11T17:29:33.492Z,12.25
2019-04-11T17:32:02.207Z,8.13
2019-04-11T17:34:32.373Z,9.38
2019-04-11T17:37:02.828Z,12.10
2019-04-11T17:39:31.638Z,11.93
2019-04-11T17:42:00.334Z,11.35
2019-04-11T17:44:29.026Z,13.65
2019-04-11T17:46:57.782Z,13.50
2019-04-11T17:49:26.486Z,13.43
2019-04-11T17:51:56.328Z,11.97
2019-04-11T17:54:25.591Z,11.93
2019-04-11T17:56:54.900Z,12.18
2019-04-11T17:59:28.036Z,11.70
2019-04-11T18:01:55.074Z,14.28
2019-04-11T18:04:23.766Z,12.60
2019-04-11T18:06:52.466Z,14.43
2019-04-11T18:09:25.528Z,14.65
2019-04-11T18:11:51.586Z,11.20
2019-04-11T18:14:20.302Z,13.13
2019-04-11T18:16:49.016Z,12.73
2019-04-11T18:19:17.718Z,10.65
2019-04-11T18:21:46.426Z,13.25
2019-04-11T18:24:15.159Z,10.10
2019-04-11T18:26:43.920Z,10.90
2019-04-11T18:29:12.643Z,12.15
2019-04-11T18:31:41.370Z,9.55
2019-04-11T18:34:10.082Z,11.33
2019-04-11T18:36:38.789Z,11.03
2019-04-11T18:39:07.698Z,12.65
2019-04-11T18:41:36.394Z,12.25
2019-04-11T18:44:05.090Z,10.90
2019-04-11T18:46:33.831Z,10.20
2019-04-11T18:49:02.535Z,10.40
2019-04-11T18:51:31.222Z,9.73
2019-04-11T18:53:59.949Z,10.98
2019-04-11T18:56:28.658Z,11.95
2019-04-11T18:58:57.360Z,10.35
2019-04-11T19:01:26.110Z,11.05
2019-04-11T19:03:54.806Z,10.58
2019-04-11T19:06:28.150Z,10.80
2019-04-11T19:08:53.858Z,11.10
2019-04-11T19:11:22.566Z,12.53
2019-04-11T19:13:51.262Z,11.55
2019-04-11T19:16:20.006Z,13.88
2019-04-11T19:18:48.710Z,10.32
2019-04-11T19:21:20.066Z,9.85
2019-04-11T19:23:47.772Z,11.35
2019-04-11T19:26:16.466Z,9.63
2019-04-11T19:28:45.158Z,11.40
2019-04-11T19:31:15.314Z,11.15
2019-04-11T19:33:44.014Z,14.10
2019-04-11T19:36:12.885Z,12.30
2019-04-11T19:38:43.322Z,11.55
2019-04-11T19:41:11.986Z,11.90
2019-04-11T19:43:41.007Z,11.80
2019-04-11T19:46:09.802Z,10.85
2019-04-11T19:48:38.569Z,11.35
2019-04-11T19:51:07.336Z,10.78
2019-04-11T19:53:36.150Z,9.50
2019-04-11T19:56:09.168Z,10.60
2019-04-11T19:58:37.871Z,12.88
2019-04-11T20:01:06.590Z,12.37
2019-04-11T20:03:35.295Z,12.90
2019-04-11T20:06:03.994Z,13.10
2019-04-11T20:08:32.720Z,15.38
2019-04-11T20:11:01.978Z,12.73
2019-04-11T20:13:32.232Z,13.00
2019-04-11T20:16:01.126Z,15.15
2019-04-11T20:18:29.837Z,13.50
2019-04-11T20:20:58.538Z,11.68
2019-04-11T20:23:27.354Z,11.97
2019-04-11T20:25:56.046Z,11.15
2019-04-11T20:28:26.683Z,12.80
2019-04-11T20:30:55.135Z,13.68
2019-04-11T20:33:27.266Z,12.55
2019-04-11T20:35:54.178Z,15.38
2019-04-11T20:38:22.906Z,20.45
2019-04-11T20:40:52.510Z,20.43
2019-04-11T20:43:24.479Z,16.42
2019-04-11T20:45:53.596Z,15.80
2019-04-11T20:48:22.502Z,16.35
2019-04-11T20:50:51.192Z,14.05
2019-04-11T20:53:19.909Z,13.10
2019-04-11T20:55:48.621Z,12.78
2019-04-11T20:58:26.822Z,14.33
2019-04-11T21:00:50.657Z,12.98
2019-04-11T21:03:18.077Z,13.58
2019-04-11T21:05:46.878Z,13.35
2019-04-11T21:08:15.605Z,13.13
2019-04-11T21:10:44.306Z,13.22
2019-04-11T21:13:13.005Z,14.03
2019-04-11T21:15:41.999Z,17.10
2019-04-11T21:18:10.706Z,13.78
2019-04-11T21:20:39.694Z,12.18
2019-04-11T21:23:08.428Z,11.48
2019-04-11T21:25:37.129Z,13.53
2019-04-11T21:28:05.823Z,13.62
2019-04-11T21:30:34.545Z,13.43
2019-04-11T21:33:03.667Z,13.72
2019-04-11T21:35:33.488Z,11.53
2019-04-11T21:38:02.785Z,12.35
2019-04-11T21:40:35.657Z,12.70
2019-04-11T21:43:05.960Z,10.35
2019-04-11T21:45:35.492Z,11.50
2019-04-11T21:48:05.593Z,12.47
2019-04-11T21:50:32.918Z,15.32
2019-04-11T21:53:01.653Z,12.33
2019-04-11T21:55:30.350Z,12.88
2019-04-11T21:57:59.060Z,14.43
2019-04-11T22:00:32.337Z,11.15
2019-04-11T22:03:01.045Z,12.75
2019-04-11T22:05:29.867Z,10.00
2019-04-11T22:08:00.932Z,9.70
2019-04-11T22:10:29.017Z,11.38
2019-04-11T22:12:57.715Z,10.90
2019-04-11T22:15:26.450Z,11.38
2019-04-11T22:17:55.142Z,10.15
2019-04-11T22:20:23.842Z,12.80
2019-04-11T22:22:52.589Z,14.63
2019-04-11T22:25:21.302Z,12.68
2019-04-11T22:27:51.077Z,11.55
2019-04-11T22:30:25.100Z,13.55
2019-04-11T22:32:55.026Z,12.90
2019-04-11T22:35:23.081Z,12.35
2019-04-11T22:37:53.277Z,10.40
2019-04-11T22:40:21.983Z,14.98
2019-04-11T22:42:50.684Z,11.73
2019-04-11T22:45:19.425Z,12.30
2019-04-11T22:47:48.117Z,11.12
2019-04-11T22:50:16.822Z,13.95
2019-04-11T22:52:45.562Z,16.15
2019-04-11T22:55:14.262Z,13.90
2019-04-11T22:57:43.711Z,15.50
2019-04-11T23:00:15.229Z,13.62
2019-04-11T23:02:50.881Z,10.38
2019-04-11T23:05:19.595Z,9.20
2019-04-11T23:07:48.971Z,9.03
2019-04-11T23:10:17.783Z,8.08
2019-04-11T23:12:46.614Z,10.72
2019-04-11T23:15:15.780Z,12.28
2019-04-11T23:17:44.777Z,12.47
2019-04-11T23:20:14.252Z,12.37
2019-04-11T23:22:43.644Z,14.30
2019-04-11T23:25:12.354Z,14.85
2019-04-11T23:27:41.073Z,11.88
2019-04-11T23:30:10.653Z,12.18
2019-04-11T23:32:39.348Z,12.50
2019-04-11T23:35:08.087Z,12.00
2019-04-11T23:37:51.238Z,11.20
2019-04-11T23:40:21.837Z,13.20
2019-04-11T23:42:50.879Z,12.00
2019-04-11T23:45:21.405Z,11.05
2019-04-11T23:47:53.246Z,11.12
2019-04-11T23:50:20.543Z,11.53
2019-04-11T23:52:49.612Z,12.73
2019-04-11T23:55:18.353Z,11.03
2019-04-11T23:57:47.039Z,12.93
